Thargomindah, Australia
Current Conditions -  °F | °C
As of 8:00 AM on Tuesday 25 Nov 2014 (Local Time) from YBCV Reporting Station
Clear Clear  
Wind Chill: 86°   Ceiling: Unl
Heat Index: 86°   Visibility: 6mi
Dew Point: 61°   Wind: 3mph
Humidity: 43%   Direction: 60°ENE
Pressure: 29.94"   Gusts: NA
Location:  28°S, 143.82°E
Report Text: YBCV 242200Z 06003KT CAVOK 30/16 Q1014
Loading
Personal Weather Stations






























Interactive Weather Map New forecast layout! Learn more

10-Day Weather Forecast

Advertisements
Track Severe Weather on mobile